sensor_id;sensor_type;location;lat;lon;timestamp;temperature;humidity
79694;DHT22;69165;52.714;13.200;2023-05-15T05:10:33;11.80;99.90
79694;DHT22;69165;52.714;13.200;2023-05-15T05:12:36;11.70;99.90
79694;DHT22;69165;52.714;13.200;2023-05-15T05:14:43;11.70;99.90
79694;DHT22;69165;52.714;13.200;2023-05-15T05:16:49;11.70;99.90
79694;DHT22;69165;52.714;13.200;2023-05-15T05:18:55;11.80;99.90
79694;DHT22;69165;52.714;13.200;2023-05-15T05:21:00;11.80;99.90
79694;DHT22;69165;52.714;13.200;2023-05-15T05:23:07;11.90;99.90
79694;DHT22;69165;52.714;13.200;2023-05-15T05:25:14;12.00;99.90
79694;DHT22;69165;52.714;13.200;2023-05-15T05:27:20;12.00;99.90
79694;DHT22;69165;52.714;13.200;2023-05-15T05:29:24;12.40;99.90
79694;DHT22;69165;52.714;13.200;2023-05-15T05:31:27;13.00;99.90
79694;DHT22;69165;52.714;13.200;2023-05-15T05:33:29;13.80;99.90
79694;DHT22;69165;52.714;13.200;2023-05-15T05:35:31;14.50;99.90
79694;DHT22;69165;52.714;13.200;2023-05-15T05:37:34;14.90;99.90
79694;DHT22;69165;52.714;13.200;2023-05-15T05:39:36;15.00;99.90
79694;DHT22;69165;52.714;13.200;2023-05-15T05:41:38;14.90;99.90
79694;DHT22;69165;52.714;13.200;2023-05-15T05:43:40;14.60;99.90
79694;DHT22;69165;52.714;13.200;2023-05-15T05:45:42;14.30;99.90
79694;DHT22;69165;52.714;13.200;2023-05-15T05:47:45;14.10;99.90
79694;DHT22;69165;52.714;13.200;2023-05-15T05:49:47;13.90;99.90
79694;DHT22;69165;52.714;13.200;2023-05-15T05:54:05;13.60;99.90
79694;DHT22;69165;52.714;13.200;2023-05-15T05:56:10;13.50;99.90
79694;DHT22;69165;52.714;13.200;2023-05-15T05:58:14;13.50;99.90
79694;DHT22;69165;52.714;13.200;2023-05-15T06:00:19;13.50;99.90
79694;DHT22;69165;52.714;13.200;2023-05-15T06:02:23;13.60;99.90
79694;DHT22;69165;52.714;13.200;2023-05-15T06:04:27;13.70;99.90
79694;DHT22;69165;52.714;13.200;2023-05-15T06:06:33;13.70;99.90
79694;DHT22;69165;52.714;13.200;2023-05-15T06:08:38;13.80;99.90
79694;DHT22;69165;52.714;13.200;2023-05-15T06:16:38;14.00;99.90
79694;DHT22;69165;52.714;13.200;2023-05-15T06:18:40;14.10;99.90
79694;DHT22;69165;52.714;13.200;2023-05-15T06:20:43;14.10;99.90
79694;DHT22;69165;52.714;13.200;2023-05-15T06:22:45;14.30;99.90
79694;DHT22;69165;52.714;13.200;2023-05-15T06:24:48;14.30;99.90
79694;DHT22;69165;52.714;13.200;2023-05-15T06:26:50;14.30;99.90
79694;DHT22;69165;52.714;13.200;2023-05-15T06:28:53;14.50;99.90
79694;DHT22;69165;52.714;13.200;2023-05-15T06:30:55;14.50;99.90
79694;DHT22;69165;52.714;13.200;2023-05-15T06:32:57;14.60;99.90
79694;DHT22;69165;52.714;13.200;2023-05-15T06:34:58;14.70;99.90
79694;DHT22;69165;52.714;13.200;2023-05-15T06:37:00;14.80;99.90
79694;DHT22;69165;52.714;13.200;2023-05-15T06:39:02;15.10;99.90
79694;DHT22;69165;52.714;13.200;2023-05-15T06:41:04;15.10;99.90
79694;DHT22;69165;52.714;13.200;2023-05-15T06:43:06;15.30;99.90
79694;DHT22;69165;52.714;13.200;2023-05-15T06:45:08;15.50;99.90
79694;DHT22;69165;52.714;13.200;2023-05-15T06:47:10;15.60;99.90
79694;DHT22;69165;52.714;13.200;2023-05-15T06:49:11;15.80;99.90
79694;DHT22;69165;52.714;13.200;2023-05-15T06:51:13;15.90;99.90
79694;DHT22;69165;52.714;13.200;2023-05-15T06:53:15;16.10;99.90
79694;DHT22;69165;52.714;13.200;2023-05-15T06:55:16;16.20;99.90
79694;DHT22;69165;52.714;13.200;2023-05-15T06:57:18;16.40;99.90
79694;DHT22;69165;52.714;13.200;2023-05-15T06:59:20;16.50;99.90
79694;DHT22;69165;52.714;13.200;2023-05-15T07:01:21;16.50;99.90
79694;DHT22;69165;52.714;13.200;2023-05-15T07:03:23;16.70;99.90
79694;DHT22;69165;52.714;13.200;2023-05-15T07:05:25;16.90;99.90
79694;DHT22;69165;52.714;13.200;2023-05-15T07:07:27;16.90;99.90
79694;DHT22;69165;52.714;13.200;2023-05-15T07:09:28;17.10;99.90
79694;DHT22;69165;52.714;13.200;2023-05-15T07:11:30;17.30;99.90
79694;DHT22;69165;52.714;13.200;2023-05-15T07:13:32;17.50;99.90
79694;DHT22;69165;52.714;13.200;2023-05-15T07:15:33;17.70;99.90
79694;DHT22;69165;52.714;13.200;2023-05-15T07:17:35;17.90;99.90
79694;DHT22;69165;52.714;13.200;2023-05-15T07:19:36;18.00;99.90
79694;DHT22;69165;52.714;13.200;2023-05-15T07:21:38;18.30;99.90
79694;DHT22;69165;52.714;13.200;2023-05-15T07:23:40;18.40;99.90
79694;DHT22;69165;52.714;13.200;2023-05-15T07:25:41;18.50;99.90
79694;DHT22;69165;52.714;13.200;2023-05-15T07:27:43;18.60;99.90
79694;DHT22;69165;52.714;13.200;2023-05-15T07:29:44;18.60;99.90
79694;DHT22;69165;52.714;13.200;2023-05-15T07:31:47;18.60;99.90
79694;DHT22;69165;52.714;13.200;2023-05-15T07:33:49;18.50;99.90
79694;DHT22;69165;52.714;13.200;2023-05-15T07:35:52;18.50;99.90
79694;DHT22;69165;52.714;13.200;2023-05-15T07:37:53;18.40;99.90
79694;DHT22;69165;52.714;13.200;2023-05-15T07:39:55;18.40;99.90
79694;DHT22;69165;52.714;13.200;2023-05-15T07:41:57;18.60;99.90
79694;DHT22;69165;52.714;13.200;2023-05-15T07:43:59;18.60;99.90
79694;DHT22;69165;52.714;13.200;2023-05-15T07:46:01;18.60;99.90
79694;DHT22;69165;52.714;13.200;2023-05-15T07:48:12;18.80;99.90
79694;DHT22;69165;52.714;13.200;2023-05-15T07:50:13;18.90;99.90
79694;DHT22;69165;52.714;13.200;2023-05-15T07:52:14;18.80;99.90
79694;DHT22;69165;52.714;13.200;2023-05-15T07:54:16;18.70;99.90
79694;DHT22;69165;52.714;13.200;2023-05-15T07:56:18;18.60;99.90
79694;DHT22;69165;52.714;13.200;2023-05-15T07:58:19;18.60;99.90
79694;DHT22;69165;52.714;13.200;2023-05-15T08:00:22;18.60;99.90
79694;DHT22;69165;52.714;13.200;2023-05-15T08:02:24;18.50;99.90
79694;DHT22;69165;52.714;13.200;2023-05-15T08:04:26;18.50;99.90
79694;DHT22;69165;52.714;13.200;2023-05-15T08:06:28;18.60;99.90
79694;DHT22;69165;52.714;13.200;2023-05-15T08:08:29;18.60;99.90
79694;DHT22;69165;52.714;13.200;2023-05-15T08:10:31;18.60;99.90
79694;DHT22;69165;52.714;13.200;2023-05-15T08:12:33;18.60;99.90
79694;DHT22;69165;52.714;13.200;2023-05-15T08:14:35;18.60;99.90
79694;DHT22;69165;52.714;13.200;2023-05-15T08:16:37;18.50;99.90
79694;DHT22;69165;52.714;13.200;2023-05-15T08:18:39;18.60;99.90
79694;DHT22;69165;52.714;13.200;2023-05-15T08:20:40;18.70;99.90
79694;DHT22;69165;52.714;13.200;2023-05-15T08:22:42;18.70;99.90
79694;DHT22;69165;52.714;13.200;2023-05-15T08:24:43;18.70;99.90
79694;DHT22;69165;52.714;13.200;2023-05-15T08:26:45;18.60;99.90
79694;DHT22;69165;52.714;13.200;2023-05-15T08:28:47;18.60;99.90
79694;DHT22;69165;52.714;13.200;2023-05-15T08:30:49;18.60;99.90
79694;DHT22;69165;52.714;13.200;2023-05-15T08:32:50;18.60;99.90
79694;DHT22;69165;52.714;13.200;2023-05-15T08:34:52;18.60;99.90
79694;DHT22;69165;52.714;13.200;2023-05-15T08:36:54;18.60;99.90
79694;DHT22;69165;52.714;13.200;2023-05-15T08:38:56;18.50;99.90
79694;DHT22;69165;52.714;13.200;2023-05-15T08:41:01;18.60;99.90
79694;DHT22;69165;52.714;13.200;2023-05-15T08:43:03;18.50;99.90
79694;DHT22;69165;52.714;13.200;2023-05-15T08:45:05;18.50;99.90
79694;DHT22;69165;52.714;13.200;2023-05-15T08:47:07;18.50;99.90
79694;DHT22;69165;52.714;13.200;2023-05-15T08:49:18;18.60;99.90
79694;DHT22;69165;52.714;13.200;2023-05-15T08:51:11;18.60;99.90
79694;DHT22;69165;52.714;13.200;2023-05-15T08:53:14;18.60;99.90
79694;DHT22;69165;52.714;13.200;2023-05-15T08:55:16;18.60;99.90
79694;DHT22;69165;52.714;13.200;2023-05-15T08:57:17;18.60;99.90
79694;DHT22;69165;52.714;13.200;2023-05-15T08:59:19;18.60;99.90
79694;DHT22;69165;52.714;13.200;2023-05-15T09:01:21;18.60;99.90
79694;DHT22;69165;52.714;13.200;2023-05-15T09:03:23;18.60;99.90
79694;DHT22;69165;52.714;13.200;2023-05-15T09:05:24;18.60;99.90
79694;DHT22;69165;52.714;13.200;2023-05-15T09:07:28;18.60;99.90
79694;DHT22;69165;52.714;13.200;2023-05-15T09:09:28;18.60;99.90
79694;DHT22;69165;52.714;13.200;2023-05-15T09:11:31;18.60;99.90
79694;DHT22;69165;52.714;13.200;2023-05-15T09:13:33;18.60;99.90
79694;DHT22;69165;52.714;13.200;2023-05-15T09:15:35;18.60;99.90
79694;DHT22;69165;52.714;13.200;2023-05-15T09:17:37;18.50;99.90
79694;DHT22;69165;52.714;13.200;2023-05-15T09:19:40;18.50;99.90
79694;DHT22;69165;52.714;13.200;2023-05-15T09:21:42;18.50;99.90
79694;DHT22;69165;52.714;13.200;2023-05-15T09:23:44;18.50;99.90
79694;DHT22;69165;52.714;13.200;2023-05-15T09:25:47;18.50;99.90
79694;DHT22;69165;52.714;13.200;2023-05-15T09:27:48;18.50;99.90
79694;DHT22;69165;52.714;13.200;2023-05-15T09:29:50;18.50;99.90
79694;DHT22;69165;52.714;13.200;2023-05-15T09:31:52;18.60;99.90
79694;DHT22;69165;52.714;13.200;2023-05-15T09:33:58;18.60;99.90
79694;DHT22;69165;52.714;13.200;2023-05-15T09:36:00;18.60;99.90
79694;DHT22;69165;52.714;13.200;2023-05-15T09:38:02;18.60;99.90
79694;DHT22;69165;52.714;13.200;2023-05-15T09:40:06;18.60;99.90
79694;DHT22;69165;52.714;13.200;2023-05-15T09:42:08;18.60;99.90
79694;DHT22;69165;52.714;13.200;2023-05-15T09:44:18;18.60;99.90
79694;DHT22;69165;52.714;13.200;2023-05-15T09:46:21;18.60;99.90
79694;DHT22;69165;52.714;13.200;2023-05-15T09:48:23;18.70;99.90
79694;DHT22;69165;52.714;13.200;2023-05-15T09:50:30;18.70;99.90
79694;DHT22;69165;52.714;13.200;2023-05-15T09:52:26;18.60;99.90
79694;DHT22;69165;52.714;13.200;2023-05-15T09:54:29;18.70;99.90
79694;DHT22;69165;52.714;13.200;2023-05-15T09:56:31;18.70;99.90
79694;DHT22;69165;52.714;13.200;2023-05-15T09:58:32;18.70;99.90
79694;DHT22;69165;52.714;13.200;2023-05-15T10:00:33;18.80;99.90
79694;DHT22;69165;52.714;13.200;2023-05-15T10:02:35;18.80;99.90
79694;DHT22;69165;52.714;13.200;2023-05-15T10:04:36;18.80;99.90
79694;DHT22;69165;52.714;13.200;2023-05-15T10:06:39;18.90;99.90
79694;DHT22;69165;52.714;13.200;2023-05-15T10:08:40;18.80;99.90
79694;DHT22;69165;52.714;13.200;2023-05-15T10:10:42;18.90;99.90
79694;DHT22;69165;52.714;13.200;2023-05-15T10:12:45;19.00;99.90
79694;DHT22;69165;52.714;13.200;2023-05-15T10:14:47;19.00;99.90
79694;DHT22;69165;52.714;13.200;2023-05-15T10:16:49;18.90;99.90
79694;DHT22;69165;52.714;13.200;2023-05-15T10:18:51;18.90;99.90
79694;DHT22;69165;52.714;13.200;2023-05-15T10:20:53;19.00;99.90
79694;DHT22;69165;52.714;13.200;2023-05-15T10:22:55;18.90;99.90
79694;DHT22;69165;52.714;13.200;2023-05-15T10:25:17;19.00;99.90
79694;DHT22;69165;52.714;13.200;2023-05-15T10:27:16;18.90;99.90
79694;DHT22;69165;52.714;13.200;2023-05-15T10:29:18;18.90;99.90
79694;DHT22;69165;52.714;13.200;2023-05-15T10:31:20;18.80;99.90
79694;DHT22;69165;52.714;13.200;2023-05-15T10:33:23;18.80;99.90
79694;DHT22;69165;52.714;13.200;2023-05-15T10:35:25;18.80;99.90
79694;DHT22;69165;52.714;13.200;2023-05-15T10:37:27;18.90;99.90
79694;DHT22;69165;52.714;13.200;2023-05-15T10:39:28;18.90;99.90
79694;DHT22;69165;52.714;13.200;2023-05-15T10:41:35;18.90;99.90
79694;DHT22;69165;52.714;13.200;2023-05-15T10:43:36;18.80;99.90
79694;DHT22;69165;52.714;13.200;2023-05-15T10:45:39;18.80;99.90
79694;DHT22;69165;52.714;13.200;2023-05-15T10:47:42;18.80;99.90
79694;DHT22;69165;52.714;13.200;2023-05-15T10:49:44;18.80;99.90
79694;DHT22;69165;52.714;13.200;2023-05-15T10:51:45;18.80;99.90
79694;DHT22;69165;52.714;13.200;2023-05-15T10:55:16;18.90;99.90
79694;DHT22;69165;52.714;13.200;2023-05-15T10:57:19;18.90;99.90
79694;DHT22;69165;52.714;13.200;2023-05-15T10:59:19;18.80;99.90
79694;DHT22;69165;52.714;13.200;2023-05-15T11:01:24;18.80;99.90
79694;DHT22;69165;52.714;13.200;2023-05-15T11:03:34;18.70;99.90
79694;DHT22;69165;52.714;13.200;2023-05-15T11:10:33;18.60;99.90
79694;DHT22;69165;52.714;13.200;2023-05-15T11:12:06;18.60;99.90
79694;DHT22;69165;52.714;13.200;2023-05-15T11:14:14;18.70;99.90
79694;DHT22;69165;52.714;13.200;2023-05-15T11:16:46;18.70;99.90
79694;DHT22;69165;52.714;13.200;2023-05-15T11:18:16;18.80;99.90
79694;DHT22;69165;52.714;13.200;2023-05-15T11:20:18;18.80;99.90
79694;DHT22;69165;52.714;13.200;2023-05-15T11:22:26;18.90;99.90
79694;DHT22;69165;52.714;13.200;2023-05-15T11:24:30;19.00;99.90
79694;DHT22;69165;52.714;13.200;2023-05-15T11:26:32;19.10;99.90
79694;DHT22;69165;52.714;13.200;2023-05-15T11:28:39;19.10;99.90
79694;DHT22;69165;52.714;13.200;2023-05-15T11:30:38;19.20;99.90
79694;DHT22;69165;52.714;13.200;2023-05-15T11:32:55;19.20;99.90
79694;DHT22;69165;52.714;13.200;2023-05-15T11:34:58;19.20;99.90
79694;DHT22;69165;52.714;13.200;2023-05-15T11:36:58;19.30;99.90
79694;DHT22;69165;52.714;13.200;2023-05-15T11:39:00;19.30;99.90
79694;DHT22;69165;52.714;13.200;2023-05-15T11:41:01;19.40;99.90
79694;DHT22;69165;52.714;13.200;2023-05-15T11:43:06;19.40;99.90
79694;DHT22;69165;52.714;13.200;2023-05-15T11:45:08;19.70;98.40
79694;DHT22;69165;52.714;13.200;2023-05-15T11:47:09;19.70;98.30
79694;DHT22;69165;52.714;13.200;2023-05-15T11:49:11;19.90;98.40
79694;DHT22;69165;52.714;13.200;2023-05-15T11:51:16;20.00;96.80
79694;DHT22;69165;52.714;13.200;2023-05-15T11:53:17;20.10;96.50
79694;DHT22;69165;52.714;13.200;2023-05-15T11:55:18;20.10;97.40
79694;DHT22;69165;52.714;13.200;2023-05-15T11:57:21;20.30;96.90
79694;DHT22;69165;52.714;13.200;2023-05-15T11:59:25;20.20;96.90
79694;DHT22;69165;52.714;13.200;2023-05-15T12:01:24;20.30;97.30
79694;DHT22;69165;52.714;13.200;2023-05-15T12:03:26;20.30;98.00
79694;DHT22;69165;52.714;13.200;2023-05-15T12:05:27;20.50;97.90
79694;DHT22;69165;52.714;13.200;2023-05-15T12:07:29;20.60;97.60
79694;DHT22;69165;52.714;13.200;2023-05-15T12:09:30;20.80;95.00
79694;DHT22;69165;52.714;13.200;2023-05-15T12:11:32;20.80;94.50
79694;DHT22;69165;52.714;13.200;2023-05-15T12:13:34;20.90;96.40
79694;DHT22;69165;52.714;13.200;2023-05-15T12:15:37;21.00;95.20
79694;DHT22;69165;52.714;13.200;2023-05-15T12:17:39;20.90;95.20
79694;DHT22;69165;52.714;13.200;2023-05-15T12:19:42;21.10;96.60
79694;DHT22;69165;52.714;13.200;2023-05-15T12:21:45;21.20;96.40
79694;DHT22;69165;52.714;13.200;2023-05-15T12:23:50;21.30;96.20
79694;DHT22;69165;52.714;13.200;2023-05-15T12:25:53;21.50;96.60
79694;DHT22;69165;52.714;13.200;2023-05-15T12:27:54;21.40;95.80
79694;DHT22;69165;52.714;13.200;2023-05-15T12:29:56;21.40;95.70
79694;DHT22;69165;52.714;13.200;2023-05-15T12:31:58;21.30;95.60
79694;DHT22;69165;52.714;13.200;2023-05-15T12:35:16;21.20;94.80
79694;DHT22;69165;52.714;13.200;2023-05-15T12:37:18;21.30;94.80
79694;DHT22;69165;52.714;13.200;2023-05-15T12:39:19;21.30;94.80
79694;DHT22;69165;52.714;13.200;2023-05-15T12:41:21;21.40;94.20
79694;DHT22;69165;52.714;13.200;2023-05-15T12:43:23;21.60;94.40
79694;DHT22;69165;52.714;13.200;2023-05-15T12:45:24;21.60;94.60
79694;DHT22;69165;52.714;13.200;2023-05-15T12:49:34;21.70;93.90
79694;DHT22;69165;52.714;13.200;2023-05-15T12:51:33;21.90;94.10
79694;DHT22;69165;52.714;13.200;2023-05-15T12:53:35;22.00;93.80
79694;DHT22;69165;52.714;13.200;2023-05-15T12:55:38;22.00;93.10
79694;DHT22;69165;52.714;13.200;2023-05-15T12:57:40;22.00;94.00
79694;DHT22;69165;52.714;13.200;2023-05-15T12:59:41;22.00;94.00
79694;DHT22;69165;52.714;13.200;2023-05-15T13:01:43;22.00;92.80
79694;DHT22;69165;52.714;13.200;2023-05-15T13:03:44;22.00;92.30
79694;DHT22;69165;52.714;13.200;2023-05-15T13:05:46;22.00;91.20
79694;DHT22;69165;52.714;13.200;2023-05-15T13:07:47;22.10;92.80
79694;DHT22;69165;52.714;13.200;2023-05-15T13:10:00;22.10;93.70
79694;DHT22;69165;52.714;13.200;2023-05-15T13:11:50;22.30;93.50
79694;DHT22;69165;52.714;13.200;2023-05-15T13:13:52;22.10;93.00
79694;DHT22;69165;52.714;13.200;2023-05-15T13:15:54;21.90;92.90
79694;DHT22;69165;52.714;13.200;2023-05-15T13:17:58;21.90;92.90
79694;DHT22;69165;52.714;13.200;2023-05-15T13:19:59;21.90;93.10
79694;DHT22;69165;52.714;13.200;2023-05-15T13:22:00;21.90;92.70
79694;DHT22;69165;52.714;13.200;2023-05-15T13:24:02;22.00;93.20
79694;DHT22;69165;52.714;13.200;2023-05-15T13:26:04;21.90;93.30
79694;DHT22;69165;52.714;13.200;2023-05-15T13:28:05;21.90;92.20
79694;DHT22;69165;52.714;13.200;2023-05-15T13:30:07;21.80;91.20
79694;DHT22;69165;52.714;13.200;2023-05-15T13:32:10;21.60;91.90
79694;DHT22;69165;52.714;13.200;2023-05-15T13:34:12;20.50;94.20
79694;DHT22;69165;52.714;13.200;2023-05-15T13:36:13;20.40;94.20
79694;DHT22;69165;52.714;13.200;2023-05-15T13:38:15;19.60;95.20
79694;DHT22;69165;52.714;13.200;2023-05-15T13:40:17;18.40;97.20
79694;DHT22;69165;52.714;13.200;2023-05-15T13:42:18;18.30;97.20
79694;DHT22;69165;52.714;13.200;2023-05-15T13:44:20;18.00;97.90
79694;DHT22;69165;52.714;13.200;2023-05-15T13:46:21;17.80;98.50
79694;DHT22;69165;52.714;13.200;2023-05-15T13:48:23;17.60;99.30
79694;DHT22;69165;52.714;13.200;2023-05-15T13:50:24;17.40;99.90
79694;DHT22;69165;52.714;13.200;2023-05-15T13:52:26;17.40;99.90
79694;DHT22;69165;52.714;13.200;2023-05-15T13:54:28;17.40;99.90
79694;DHT22;69165;52.714;13.200;2023-05-15T13:56:29;17.40;99.90
79694;DHT22;69165;52.714;13.200;2023-05-15T13:58:31;17.40;99.90
79694;DHT22;69165;52.714;13.200;2023-05-15T14:00:33;17.40;99.90
79694;DHT22;69165;52.714;13.200;2023-05-15T14:02:34;17.60;99.90
79694;DHT22;69165;52.714;13.200;2023-05-15T14:04:36;17.60;99.90
79694;DHT22;69165;52.714;13.200;2023-05-15T14:06:37;17.60;99.90
79694;DHT22;69165;52.714;13.200;2023-05-15T14:08:39;17.60;99.90
79694;DHT22;69165;52.714;13.200;2023-05-15T14:10:41;17.80;99.90
79694;DHT22;69165;52.714;13.200;2023-05-15T14:12:42;17.80;99.90
79694;DHT22;69165;52.714;13.200;2023-05-15T14:14:45;17.80;99.90
79694;DHT22;69165;52.714;13.200;2023-05-15T14:16:47;17.90;99.90
79694;DHT22;69165;52.714;13.200;2023-05-15T14:18:49;17.80;99.90
79694;DHT22;69165;52.714;13.200;2023-05-15T14:20:50;17.90;99.90
79694;DHT22;69165;52.714;13.200;2023-05-15T14:22:52;17.90;99.90
79694;DHT22;69165;52.714;13.200;2023-05-15T14:24:53;17.80;99.90
79694;DHT22;69165;52.714;13.200;2023-05-15T14:26:55;17.60;99.90
79694;DHT22;69165;52.714;13.200;2023-05-15T14:28:57;17.50;99.90
79694;DHT22;69165;52.714;13.200;2023-05-15T14:30:58;17.40;99.90
79694;DHT22;69165;52.714;13.200;2023-05-15T14:32:59;17.30;99.90
79694;DHT22;69165;52.714;13.200;2023-05-15T14:35:01;17.30;99.90
79694;DHT22;69165;52.714;13.200;2023-05-15T14:37:03;17.20;99.90
79694;DHT22;69165;52.714;13.200;2023-05-15T14:39:04;17.20;99.90
79694;DHT22;69165;52.714;13.200;2023-05-15T14:41:06;17.20;99.90
79694;DHT22;69165;52.714;13.200;2023-05-15T14:43:08;17.20;99.90
79694;DHT22;69165;52.714;13.200;2023-05-15T14:45:09;17.40;99.90
79694;DHT22;69165;52.714;13.200;2023-05-15T14:47:11;17.60;99.90
79694;DHT22;69165;52.714;13.200;2023-05-15T14:49:13;17.60;99.90
79694;DHT22;69165;52.714;13.200;2023-05-15T14:51:14;17.60;99.90
79694;DHT22;69165;52.714;13.200;2023-05-15T14:53:58;17.50;99.90
79694;DHT22;69165;52.714;13.200;2023-05-15T14:56:01;17.40;99.90
79694;DHT22;69165;52.714;13.200;2023-05-15T15:00:27;17.30;99.90
79694;DHT22;69165;52.714;13.200;2023-05-15T15:04:15;17.40;99.90
79694;DHT22;69165;52.714;13.200;2023-05-15T15:06:16;17.40;99.90
79694;DHT22;69165;52.714;13.200;2023-05-15T15:08:18;17.40;99.90
79694;DHT22;69165;52.714;13.200;2023-05-15T15:10:20;17.30;99.90
79694;DHT22;69165;52.714;13.200;2023-05-15T15:12:23;17.30;99.90
79694;DHT22;69165;52.714;13.200;2023-05-15T15:15:54;17.30;99.90
79694;DHT22;69165;52.714;13.200;2023-05-15T15:17:56;17.20;99.90
79694;DHT22;69165;52.714;13.200;2023-05-15T15:19:57;17.20;99.90
79694;DHT22;69165;52.714;13.200;2023-05-15T15:21:59;17.20;99.90
79694;DHT22;69165;52.714;13.200;2023-05-15T15:24:01;17.20;99.90
79694;DHT22;69165;52.714;13.200;2023-05-15T15:26:03;17.20;99.90
79694;DHT22;69165;52.714;13.200;2023-05-15T15:28:05;17.20;99.90
79694;DHT22;69165;52.714;13.200;2023-05-15T15:30:07;17.40;99.90
79694;DHT22;69165;52.714;13.200;2023-05-15T15:32:08;17.40;99.90
79694;DHT22;69165;52.714;13.200;2023-05-15T15:34:11;17.70;99.90
79694;DHT22;69165;52.714;13.200;2023-05-15T15:36:13;17.70;99.90
79694;DHT22;69165;52.714;13.200;2023-05-15T15:38:16;17.80;99.90
79694;DHT22;69165;52.714;13.200;2023-05-15T15:40:18;17.80;99.90
79694;DHT22;69165;52.714;13.200;2023-05-15T15:42:20;17.70;99.90
79694;DHT22;69165;52.714;13.200;2023-05-15T15:44:22;17.70;99.90
79694;DHT22;69165;52.714;13.200;2023-05-15T15:46:22;17.70;99.90
79694;DHT22;69165;52.714;13.200;2023-05-15T15:48:24;17.70;99.90
79694;DHT22;69165;52.714;13.200;2023-05-15T15:50:26;17.60;99.90
79694;DHT22;69165;52.714;13.200;2023-05-15T15:52:29;17.50;99.90
79694;DHT22;69165;52.714;13.200;2023-05-15T15:54:30;17.50;99.90
79694;DHT22;69165;52.714;13.200;2023-05-15T15:56:33;17.50;99.90
79694;DHT22;69165;52.714;13.200;2023-05-15T15:58:35;17.50;99.90
79694;DHT22;69165;52.714;13.200;2023-05-15T16:00:38;17.50;99.90
79694;DHT22;69165;52.714;13.200;2023-05-15T16:02:40;17.60;99.90
79694;DHT22;69165;52.714;13.200;2023-05-15T16:04:42;17.50;99.90
79694;DHT22;69165;52.714;13.200;2023-05-15T16:06:43;17.60;99.90
79694;DHT22;69165;52.714;13.200;2023-05-15T16:08:45;17.50;99.90
79694;DHT22;69165;52.714;13.200;2023-05-15T16:10:47;17.60;99.90
79694;DHT22;69165;52.714;13.200;2023-05-15T16:12:49;17.60;99.90
79694;DHT22;69165;52.714;13.200;2023-05-15T16:14:52;17.80;99.90
79694;DHT22;69165;52.714;13.200;2023-05-15T16:16:53;17.70;99.90
79694;DHT22;69165;52.714;13.200;2023-05-15T16:18:55;17.80;99.90
79694;DHT22;69165;52.714;13.200;2023-05-15T16:20:57;17.80;99.90
79694;DHT22;69165;52.714;13.200;2023-05-15T16:22:58;17.90;99.90
79694;DHT22;69165;52.714;13.200;2023-05-15T16:25:00;18.00;99.90
79694;DHT22;69165;52.714;13.200;2023-05-15T16:27:02;18.00;99.90
79694;DHT22;69165;52.714;13.200;2023-05-15T16:29:03;18.10;99.90
79694;DHT22;69165;52.714;13.200;2023-05-15T16:31:05;18.00;99.90
79694;DHT22;69165;52.714;13.200;2023-05-15T16:33:06;18.00;99.90
79694;DHT22;69165;52.714;13.200;2023-05-15T16:35:08;18.00;99.90
79694;DHT22;69165;52.714;13.200;2023-05-15T16:37:09;18.00;99.90
79694;DHT22;69165;52.714;13.200;2023-05-15T16:39:11;18.00;99.90
79694;DHT22;69165;52.714;13.200;2023-05-15T16:41:13;18.00;99.90
79694;DHT22;69165;52.714;13.200;2023-05-15T16:43:15;17.90;99.90
79694;DHT22;69165;52.714;13.200;2023-05-15T16:45:17;17.90;99.90
79694;DHT22;69165;52.714;13.200;2023-05-15T16:47:18;17.90;99.90
79694;DHT22;69165;52.714;13.200;2023-05-15T16:49:20;17.80;99.90
79694;DHT22;69165;52.714;13.200;2023-05-15T16:51:21;17.80;99.90
79694;DHT22;69165;52.714;13.200;2023-05-15T16:55:37;17.80;99.90
79694;DHT22;69165;52.714;13.200;2023-05-15T16:57:38;17.70;99.90
79694;DHT22;69165;52.714;13.200;2023-05-15T16:59:40;17.70;99.90
79694;DHT22;69165;52.714;13.200;2023-05-15T17:01:41;17.70;99.90
79694;DHT22;69165;52.714;13.200;2023-05-15T17:03:43;17.60;99.90
79694;DHT22;69165;52.714;13.200;2023-05-15T17:05:45;17.60;99.90
79694;DHT22;69165;52.714;13.200;2023-05-15T17:07:46;17.50;99.90
79694;DHT22;69165;52.714;13.200;2023-05-15T17:09:48;17.40;99.90
79694;DHT22;69165;52.714;13.200;2023-05-15T17:11:49;17.40;99.90
79694;DHT22;69165;52.714;13.200;2023-05-15T17:13:51;17.30;99.90
79694;DHT22;69165;52.714;13.200;2023-05-15T17:15:53;17.30;99.90
79694;DHT22;69165;52.714;13.200;2023-05-15T17:17:54;17.20;99.90
79694;DHT22;69165;52.714;13.200;2023-05-15T17:19:56;17.10;99.90
79694;DHT22;69165;52.714;13.200;2023-05-15T17:21:57;17.20;99.90
79694;DHT22;69165;52.714;13.200;2023-05-15T17:23:59;17.10;99.90
79694;DHT22;69165;52.714;13.200;2023-05-15T17:26:01;17.00;99.90
79694;DHT22;69165;52.714;13.200;2023-05-15T17:28:03;17.00;99.90
79694;DHT22;69165;52.714;13.200;2023-05-15T17:30:06;17.00;99.90
79694;DHT22;69165;52.714;13.200;2023-05-15T17:32:08;17.00;99.90
79694;DHT22;69165;52.714;13.200;2023-05-15T17:34:09;17.00;99.90
79694;DHT22;69165;52.714;13.200;2023-05-15T17:36:11;16.90;99.90
79694;DHT22;69165;52.714;13.200;2023-05-15T17:38:13;16.90;99.90
79694;DHT22;69165;52.714;13.200;2023-05-15T17:40:14;16.90;99.90
79694;DHT22;69165;52.714;13.200;2023-05-15T17:42:16;16.80;99.90
79694;DHT22;69165;52.714;13.200;2023-05-15T17:44:17;16.70;99.90
79694;DHT22;69165;52.714;13.200;2023-05-15T17:46:19;16.70;99.90
79694;DHT22;69165;52.714;13.200;2023-05-15T17:48:21;16.70;99.90
79694;DHT22;69165;52.714;13.200;2023-05-15T17:50:22;16.60;99.90
79694;DHT22;69165;52.714;13.200;2023-05-15T17:52:24;16.50;99.90
79694;DHT22;69165;52.714;13.200;2023-05-15T17:54:25;16.40;99.90
79694;DHT22;69165;52.714;13.200;2023-05-15T17:56:27;16.40;99.90
79694;DHT22;69165;52.714;13.200;2023-05-15T17:58:29;16.40;99.90
79694;DHT22;69165;52.714;13.200;2023-05-15T18:00:30;16.40;99.90
79694;DHT22;69165;52.714;13.200;2023-05-15T18:02:32;16.40;99.90
79694;DHT22;69165;52.714;13.200;2023-05-15T18:04:34;16.40;99.90
79694;DHT22;69165;52.714;13.200;2023-05-15T18:06:36;16.30;99.90
79694;DHT22;69165;52.714;13.200;2023-05-15T18:08:40;16.30;99.90
79694;DHT22;69165;52.714;13.200;2023-05-15T18:10:42;16.30;99.90
79694;DHT22;69165;52.714;13.200;2023-05-15T18:12:44;16.20;99.90
79694;DHT22;69165;52.714;13.200;2023-05-15T18:14:46;16.20;99.90